createdAt,value
2018-05-15T00:00:46.765Z,5.00
2018-05-15T00:03:12.974Z,3.77
2018-05-15T00:05:39.817Z,4.40
2018-05-15T00:08:05.997Z,4.50
2018-05-15T00:10:32.123Z,4.60
2018-05-15T00:12:58.242Z,4.43
2018-05-15T00:15:24.373Z,4.20
2018-05-15T00:17:50.562Z,4.60
2018-05-15T00:20:16.681Z,4.50
2018-05-15T00:22:42.857Z,4.70
2018-05-15T00:25:08.991Z,4.30
2018-05-15T00:27:35.195Z,5.00
2018-05-15T00:30:01.412Z,4.50
2018-05-15T00:32:28.002Z,4.20
2018-05-15T00:34:54.301Z,4.47
2018-05-15T00:37:20.632Z,3.93
2018-05-15T00:39:51.316Z,5.40
2018-05-15T00:42:17.635Z,4.10
2018-05-15T00:44:43.840Z,5.20
2018-05-15T00:47:09.995Z,4.73
2018-05-15T00:49:36.159Z,4.27
2018-05-15T00:52:02.312Z,4.97
2018-05-15T00:54:28.598Z,4.27
2018-05-15T00:56:54.698Z,4.10
2018-05-15T00:59:20.872Z,4.87
2018-05-15T01:01:47.011Z,4.53
2018-05-15T01:04:13.271Z,4.73
2018-05-15T01:06:40.200Z,4.63
2018-05-15T01:09:07.106Z,4.80
2018-05-15T01:11:33.302Z,4.10
2018-05-15T01:13:59.495Z,4.57
2018-05-15T01:16:25.687Z,4.30
2018-05-15T01:18:51.873Z,4.70
2018-05-15T01:21:18.096Z,4.17
2018-05-15T01:23:44.259Z,3.87
2018-05-15T01:26:10.453Z,4.40
2018-05-15T01:28:36.581Z,4.37
2018-05-15T01:31:02.746Z,4.40
2018-05-15T01:33:32.787Z,4.07
2018-05-15T01:35:59.115Z,4.93
2018-05-15T01:38:25.351Z,4.47
2018-05-15T01:40:51.558Z,4.97
2018-05-15T01:43:17.715Z,4.00
2018-05-15T01:45:43.856Z,3.87
2018-05-15T01:48:10.012Z,4.30
2018-05-15T01:50:36.185Z,3.93
2018-05-15T01:53:02.382Z,4.10
2018-05-15T01:55:28.538Z,4.70
2018-05-15T01:57:55.498Z,4.53
2018-05-15T02:00:21.762Z,4.70
2018-05-15T02:02:47.892Z,4.63
2018-05-15T02:05:14.072Z,4.10
2018-05-15T02:07:40.323Z,4.60
2018-05-15T02:10:06.438Z,4.30
2018-05-15T02:12:32.597Z,4.93
2018-05-15T02:14:58.742Z,4.53
2018-05-15T02:17:24.903Z,4.70
2018-05-15T02:19:51.018Z,3.87
2018-05-15T02:22:17.180Z,4.50
2018-05-15T02:24:43.347Z,4.40
2018-05-15T02:27:09.550Z,4.70
2018-05-15T02:29:35.691Z,5.00
2018-05-15T02:32:01.880Z,3.90
2018-05-15T02:34:28.987Z,4.60
2018-05-15T02:36:55.120Z,3.60
2018-05-15T02:39:21.263Z,4.90
2018-05-15T02:41:47.411Z,4.63
2018-05-15T02:44:13.586Z,4.90
2018-05-15T02:46:39.751Z,4.27
2018-05-15T02:49:05.905Z,4.27
2018-05-15T02:51:32.067Z,4.47
2018-05-15T02:53:58.193Z,4.80
2018-05-15T02:56:24.326Z,4.53
2018-05-15T02:58:51.334Z,4.63
2018-05-15T03:01:17.496Z,4.73
2018-05-15T03:03:43.659Z,4.93
2018-05-15T03:06:09.835Z,4.70
2018-05-15T03:08:36.714Z,4.40
2018-05-15T03:11:02.916Z,4.37
2018-05-15T03:13:29.807Z,4.43
2018-05-15T03:15:56.020Z,5.07
2018-05-15T03:18:22.167Z,4.27
2018-05-15T03:20:48.318Z,5.20
2018-05-15T03:23:14.455Z,4.60
2018-05-15T03:25:41.529Z,4.60
2018-05-15T03:28:07.658Z,4.73
2018-05-15T03:30:33.837Z,4.90
2018-05-15T03:32:59.979Z,4.10
2018-05-15T03:35:26.331Z,6.30
2018-05-15T03:37:52.487Z,4.77
2018-05-15T03:40:18.662Z,4.60
2018-05-15T03:42:44.855Z,4.67
2018-05-15T03:45:10.991Z,4.67
2018-05-15T03:47:37.148Z,4.07
2018-05-15T03:50:03.439Z,4.97
2018-05-15T03:52:29.631Z,4.63
2018-05-15T03:54:55.829Z,4.27
2018-05-15T03:57:21.996Z,4.50
2018-05-15T03:59:48.141Z,5.10
2018-05-15T04:02:26.366Z,5.33
2018-05-15T04:05:05.424Z,4.57
2018-05-15T04:07:43.657Z,4.17
2018-05-15T04:10:09.899Z,5.30
2018-05-15T04:12:36.024Z,4.30
2018-05-15T04:15:02.230Z,4.23
2018-05-15T04:17:28.364Z,5.00
2018-05-15T04:19:54.523Z,4.47
2018-05-15T04:22:20.730Z,4.87
2018-05-15T04:24:47.218Z,5.17
2018-05-15T04:27:13.376Z,5.00
2018-05-15T04:29:40.324Z,4.30
2018-05-15T04:32:06.473Z,4.23
2018-05-15T04:34:32.637Z,4.83
2018-05-15T04:36:58.767Z,5.03
2018-05-15T04:39:24.906Z,4.50
2018-05-15T04:41:51.068Z,4.40
2018-05-15T04:44:17.859Z,5.40
2018-05-15T04:46:43.985Z,5.47
2018-05-15T04:49:10.262Z,4.93
2018-05-15T04:51:36.422Z,5.17
2018-05-15T04:54:03.426Z,4.90
2018-05-15T04:56:29.555Z,4.67
2018-05-15T04:58:55.701Z,4.50
2018-05-15T05:01:21.916Z,4.57
2018-05-15T05:03:48.052Z,4.53
2018-05-15T05:06:14.305Z,5.17
2018-05-15T05:08:40.485Z,4.73
2018-05-15T05:11:06.615Z,5.60
2018-05-15T05:13:32.777Z,5.73
2018-05-15T05:15:59.695Z,5.63
2018-05-15T05:18:26.674Z,5.40
2018-05-15T05:20:52.918Z,4.80
2018-05-15T05:23:19.122Z,4.70
2018-05-15T05:25:45.347Z,4.90
2018-05-15T05:28:11.605Z,5.50
2018-05-15T05:30:37.773Z,5.40
2018-05-15T05:33:04.425Z,5.77
2018-05-15T05:35:31.381Z,5.37
2018-05-15T05:37:57.578Z,5.00
2018-05-15T05:40:23.726Z,4.70
2018-05-15T05:42:50.630Z,4.50
2018-05-15T05:45:16.778Z,4.70
2018-05-15T05:47:55.416Z,5.47
2018-05-15T05:50:29.870Z,5.50
2018-05-15T05:52:56.209Z,5.30
2018-05-15T05:55:22.336Z,5.17
2018-05-15T05:57:48.491Z,5.47
2018-05-15T06:00:14.655Z,5.40
2018-05-15T06:02:40.824Z,4.77
2018-05-15T06:05:06.975Z,5.13
2018-05-15T06:07:33.171Z,5.93
2018-05-15T06:09:59.323Z,4.80
2018-05-15T06:12:25.500Z,4.83
2018-05-15T06:14:51.663Z,4.20
2018-05-15T06:17:17.821Z,4.67
2018-05-15T06:19:43.964Z,6.40
2018-05-15T06:22:10.127Z,4.40
2018-05-15T06:24:36.261Z,5.20
2018-05-15T06:27:03.416Z,5.47
2018-05-15T06:29:29.559Z,4.50
2018-05-15T06:31:55.710Z,5.20
2018-05-15T06:34:22.999Z,6.13
2018-05-15T06:36:50.147Z,4.67
2018-05-15T06:39:18.576Z,4.97
2018-05-15T06:41:44.850Z,5.50
2018-05-15T06:44:11.039Z,5.53
2018-05-15T06:46:38.622Z,5.20
2018-05-15T06:49:05.411Z,4.50
2018-05-15T06:51:31.655Z,5.10
2018-05-15T06:53:57.939Z,5.73
2018-05-15T06:56:24.171Z,4.90
2018-05-15T06:58:50.670Z,4.30
2018-05-15T07:01:17.778Z,5.70
2018-05-15T07:03:44.026Z,4.80
2018-05-15T07:06:10.248Z,5.10
2018-05-15T07:08:36.451Z,4.63
2018-05-15T07:11:03.623Z,5.17
2018-05-15T07:13:35.829Z,5.00
2018-05-15T07:16:02.387Z,4.97
2018-05-15T07:18:28.593Z,4.73
2018-05-15T07:20:54.839Z,4.80
2018-05-15T07:23:21.037Z,5.30
2018-05-15T07:25:47.312Z,4.70
2018-05-15T07:28:14.110Z,5.73
2018-05-15T07:30:40.317Z,5.37
2018-05-15T07:33:15.361Z,5.73
2018-05-15T07:35:42.797Z,5.73
2018-05-15T07:38:09.849Z,5.40
2018-05-15T07:40:36.838Z,5.23
2018-05-15T07:43:03.051Z,4.80
2018-05-15T07:45:29.892Z,4.73
2018-05-15T07:47:56.514Z,4.97
2018-05-15T07:50:27.347Z,5.10
2018-05-15T07:52:54.537Z,5.73
2018-05-15T07:55:20.690Z,5.07
2018-05-15T07:57:47.688Z,4.27
2018-05-15T08:00:13.894Z,5.50
2018-05-15T08:02:44.865Z,4.90
2018-05-15T08:05:15.382Z,5.43
2018-05-15T08:07:42.629Z,4.87
2018-05-15T08:10:08.941Z,7.10
2018-05-15T08:12:35.328Z,5.67
2018-05-15T08:15:01.608Z,5.03
2018-05-15T08:17:28.735Z,5.07
2018-05-15T08:19:55.046Z,5.83
2018-05-15T08:22:22.167Z,4.50
2018-05-15T08:24:57.911Z,4.97
2018-05-15T08:27:24.362Z,5.70
2018-05-15T08:29:51.626Z,5.53
2018-05-15T08:32:21.252Z,5.20
2018-05-15T08:34:51.958Z,5.53
2018-05-15T08:37:18.403Z,5.40
2018-05-15T08:39:47.087Z,4.87
2018-05-15T08:42:14.847Z,4.97
2018-05-15T08:44:41.532Z,5.20
2018-05-15T08:47:10.659Z,5.27
2018-05-15T08:49:36.979Z,5.10
2018-05-15T08:52:03.611Z,5.20
2018-05-15T08:54:29.964Z,5.27
2018-05-15T08:57:00.122Z,5.87
2018-05-15T08:59:26.847Z,5.27
2018-05-15T09:01:53.568Z,5.40
2018-05-15T09:04:19.967Z,6.00
2018-05-15T09:06:46.458Z,4.70
2018-05-15T09:09:13.420Z,5.47
2018-05-15T09:14:19.466Z,5.67
2018-05-15T09:16:47.038Z,5.30
2018-05-15T09:19:22.316Z,6.10
2018-05-15T09:21:48.843Z,5.67
2018-05-15T09:24:15.027Z,5.43
2018-05-15T09:26:41.292Z,5.23
2018-05-15T09:29:13.046Z,4.93
2018-05-15T09:31:39.308Z,5.10
2018-05-15T09:34:13.996Z,4.80
2018-05-15T09:36:41.097Z,4.27
2018-05-15T09:39:07.340Z,5.47
2018-05-15T09:41:34.610Z,6.20
2018-05-15T09:44:00.883Z,6.00
2018-05-15T09:46:27.389Z,5.03
2018-05-15T09:48:58.320Z,5.60
2018-05-15T09:51:24.665Z,5.63
2018-05-15T09:53:51.918Z,4.67
2018-05-15T09:56:19.159Z,4.90
2018-05-15T09:58:45.506Z,5.30
2018-05-15T10:01:13.308Z,4.73
2018-05-15T10:03:46.969Z,5.17
2018-05-15T10:06:13.938Z,4.60
2018-05-15T10:08:40.252Z,5.40
2018-05-15T10:11:10.861Z,5.30
2018-05-15T10:13:37.097Z,5.10
2018-05-15T10:16:06.041Z,4.37
2018-05-15T10:18:32.427Z,5.10
2018-05-15T10:24:17.349Z,5.50
2018-05-15T10:35:51.140Z,4.40
2018-05-15T10:38:17.764Z,4.80
2018-05-15T10:40:49.506Z,4.37
2018-05-15T10:43:20.371Z,4.20
2018-05-15T10:45:54.366Z,3.73
2018-05-15T10:48:21.496Z,3.67
2018-05-15T10:53:59.780Z,3.30
2018-05-15T10:56:30.205Z,2.93
2018-05-15T10:58:58.090Z,3.30
2018-05-15T11:01:24.548Z,4.00
2018-05-15T11:03:52.700Z,3.50
2018-05-15T11:08:56.950Z,3.70
2018-05-15T11:11:23.284Z,3.70
2018-05-15T11:13:49.493Z,3.33
2018-05-15T11:16:16.603Z,3.70
2018-05-15T11:18:42.884Z,3.40
2018-05-15T11:21:21.543Z,3.93
2018-05-15T11:37:40.640Z,3.83
2018-05-15T11:40:07.003Z,3.70
2018-05-15T11:42:33.273Z,3.10
2018-05-15T11:45:00.372Z,3.50
2018-05-15T11:47:26.668Z,3.87
2018-05-15T11:49:59.835Z,3.63
2018-05-15T11:52:27.916Z,4.63
2018-05-15T11:54:54.178Z,4.57
2018-05-15T11:57:21.355Z,4.50
2018-05-15T11:59:47.743Z,4.37
2018-05-15T12:02:15.705Z,3.57
2018-05-15T12:04:42.830Z,3.67
2018-05-15T12:07:10.278Z,4.77
2018-05-15T12:09:36.561Z,4.63
2018-05-15T12:12:02.851Z,4.20
2018-05-15T12:14:29.143Z,4.00
2018-05-15T12:16:55.439Z,4.57
2018-05-15T12:19:26.995Z,4.50
2018-05-15T12:21:53.224Z,4.23
2018-05-15T12:24:19.448Z,4.40
2018-05-15T12:26:45.750Z,4.20
2018-05-15T12:29:15.873Z,4.10
2018-05-15T12:31:42.493Z,4.30
2018-05-15T12:34:12.788Z,4.40
2018-05-15T12:36:39.060Z,3.47
2018-05-15T12:39:05.564Z,5.37
2018-05-15T12:41:31.925Z,4.20
2018-05-15T12:43:59.149Z,4.20
2018-05-15T12:46:25.381Z,4.37
2018-05-15T12:48:51.668Z,3.87
2018-05-15T12:51:18.128Z,4.40
2018-05-15T12:53:45.030Z,4.20
2018-05-15T12:56:12.007Z,5.00
2018-05-15T12:58:38.291Z,5.33
2018-05-15T13:01:04.630Z,3.80
2018-05-15T13:03:30.931Z,4.67
2018-05-15T13:05:58.696Z,4.57
2018-05-15T13:08:26.000Z,4.37
2018-05-15T13:10:58.418Z,4.90
2018-05-15T13:13:30.694Z,4.03
2018-05-15T13:15:57.306Z,3.90
2018-05-15T13:18:24.602Z,4.60
2018-05-15T13:20:52.515Z,3.90
2018-05-15T13:23:19.588Z,4.60
2018-05-15T13:25:46.678Z,4.57
2018-05-15T13:28:12.917Z,5.40
2018-05-15T13:30:39.913Z,4.13
2018-05-15T13:33:06.243Z,4.13
2018-05-15T13:35:34.033Z,4.77
2018-05-15T13:38:00.505Z,4.10
2018-05-15T13:40:33.373Z,4.50
2018-05-15T13:42:59.680Z,3.50
2018-05-15T13:45:26.252Z,3.97
2018-05-15T13:47:53.332Z,4.90
2018-05-15T13:50:20.340Z,4.73
2018-05-15T13:52:47.664Z,4.70
2018-05-15T13:55:14.149Z,4.83
2018-05-15T13:57:44.600Z,4.30
2018-05-15T14:00:10.946Z,4.40
2018-05-15T14:02:39.262Z,4.03
2018-05-15T14:05:07.204Z,4.63
2018-05-15T14:07:33.523Z,4.30
2018-05-15T14:09:59.814Z,4.03
2018-05-15T14:12:26.235Z,4.50
2018-05-15T14:14:53.660Z,4.47
2018-05-15T14:17:24.620Z,3.87
2018-05-15T14:19:50.989Z,4.03
2018-05-15T14:22:17.280Z,4.73
2018-05-15T14:24:44.366Z,4.83
2018-05-15T14:27:10.588Z,5.70
2018-05-15T14:29:38.200Z,5.00
2018-05-15T14:32:04.488Z,5.00
2018-05-15T14:34:30.716Z,4.13
2018-05-15T14:36:56.997Z,4.03
2018-05-15T14:39:23.229Z,4.60
2018-05-15T14:42:05.375Z,3.80
2018-05-15T14:44:31.542Z,4.10
2018-05-15T14:46:58.148Z,4.53
2018-05-15T14:49:24.597Z,3.00
2018-05-15T14:51:51.154Z,3.83
2018-05-15T14:54:17.498Z,3.70
2018-05-15T14:56:43.808Z,3.97
2018-05-15T14:59:10.154Z,4.43
2018-05-15T15:01:37.235Z,4.20
2018-05-15T15:04:04.632Z,3.80
2018-05-15T15:06:30.932Z,3.97
2018-05-15T15:08:57.347Z,4.00
2018-05-15T15:11:23.707Z,3.90
2018-05-15T15:13:54.590Z,4.60
2018-05-15T15:16:20.857Z,4.23
2018-05-15T15:18:47.113Z,4.13
2018-05-15T15:21:13.496Z,3.53
2018-05-15T15:23:41.617Z,3.77
2018-05-15T15:26:07.965Z,3.60
2018-05-15T15:28:34.703Z,3.47
2018-05-15T15:31:01.756Z,4.40
2018-05-15T15:33:29.097Z,4.10
2018-05-15T15:38:32.397Z,3.60
2018-05-15T15:40:59.334Z,4.87
2018-05-15T15:43:26.442Z,3.97
2018-05-15T15:45:53.900Z,4.23
2018-05-15T15:48:20.976Z,4.27
2018-05-15T15:50:48.944Z,3.00
2018-05-15T15:53:15.941Z,3.87
2018-05-15T15:55:42.627Z,3.27
2018-05-15T15:58:09.116Z,3.70
2018-05-15T16:00:35.503Z,3.17
2018-05-15T16:03:03.651Z,4.60
2018-05-15T16:05:30.771Z,4.60
2018-05-15T16:07:57.097Z,4.30
2018-05-15T16:10:24.519Z,4.00
2018-05-15T16:12:54.901Z,3.83
2018-05-15T16:15:21.499Z,4.10
2018-05-15T16:17:47.716Z,4.90
2018-05-15T16:20:14.034Z,4.40
2018-05-15T16:22:41.253Z,4.63
2018-05-15T16:25:08.354Z,5.53
2018-05-15T16:27:35.439Z,4.80
2018-05-15T16:30:02.625Z,4.50
2018-05-15T16:32:28.971Z,4.30
2018-05-15T16:34:55.194Z,5.47
2018-05-15T16:37:22.103Z,5.50
2018-05-15T16:39:49.243Z,4.90
2018-05-15T16:42:17.061Z,5.10
2018-05-15T16:44:43.993Z,5.90
2018-05-15T16:47:10.566Z,5.17
2018-05-15T16:49:36.913Z,5.20
2018-05-15T16:52:05.263Z,5.20
2018-05-15T16:54:36.100Z,4.90
2018-05-15T16:57:10.166Z,5.00
2018-05-15T16:59:36.553Z,4.63
2018-05-15T17:07:06.158Z,4.97
2018-05-15T17:09:32.617Z,5.23
2018-05-15T17:11:59.363Z,5.20
2018-05-15T17:14:25.730Z,4.70
2018-05-15T17:16:52.437Z,5.33
2018-05-15T17:19:22.970Z,5.00
2018-05-15T17:21:49.797Z,4.63
2018-05-15T17:24:16.776Z,4.90
2018-05-15T17:26:44.284Z,4.63
2018-05-15T17:29:11.367Z,5.13
2018-05-15T17:31:39.470Z,4.33
2018-05-15T17:34:05.926Z,5.40
2018-05-15T17:36:32.666Z,5.30
2018-05-15T17:38:59.076Z,4.70
2018-05-15T17:41:25.650Z,5.00
2018-05-15T17:43:52.288Z,4.80
2018-05-15T17:46:18.966Z,4.70
2018-05-15T17:48:45.702Z,4.93
2018-05-15T17:51:19.119Z,5.03
2018-05-15T17:53:50.534Z,5.80
2018-05-15T17:58:51.826Z,4.47
2018-05-15T18:01:19.019Z,4.40
2018-05-15T18:03:48.351Z,5.47
2018-05-15T18:06:15.333Z,4.30
2018-05-15T18:08:44.561Z,4.30
2018-05-15T18:11:11.227Z,5.10
2018-05-15T18:13:41.849Z,4.37
2018-05-15T18:16:08.199Z,4.73
2018-05-15T18:18:38.692Z,5.20
2018-05-15T18:21:05.097Z,4.80
2018-05-15T18:23:35.474Z,4.30
2018-05-15T18:26:02.651Z,4.87
2018-05-15T18:28:29.775Z,4.20
2018-05-15T18:30:56.433Z,4.13
2018-05-15T18:33:27.532Z,3.23
2018-05-15T18:35:53.912Z,3.57
2018-05-15T18:38:20.935Z,3.03
2018-05-15T18:40:47.204Z,3.33
2018-05-15T18:43:14.092Z,2.90
2018-05-15T18:45:46.326Z,3.40
2018-05-15T18:48:13.178Z,3.13
2018-05-15T18:50:39.594Z,3.13
2018-05-15T18:53:05.997Z,3.13
2018-05-15T18:55:32.455Z,2.80
2018-05-15T18:57:59.559Z,3.07
2018-05-15T19:00:27.276Z,3.47
2018-05-15T19:02:55.008Z,4.17
2018-05-15T19:05:22.080Z,3.90
2018-05-15T19:07:49.048Z,5.00
2018-05-15T19:10:15.486Z,4.10
2018-05-15T19:12:41.925Z,3.70
2018-05-15T19:15:08.458Z,4.60
2018-05-15T19:17:35.007Z,4.73
2018-05-15T19:20:01.820Z,4.13
2018-05-15T19:22:28.398Z,3.67
2018-05-15T19:24:57.064Z,4.30
2018-05-15T19:27:29.906Z,4.00
2018-05-15T19:29:56.562Z,4.13
2018-05-15T19:32:33.027Z,3.90
2018-05-15T19:34:59.844Z,5.53
2018-05-15T19:37:26.232Z,4.10
2018-05-15T19:39:53.514Z,4.27
2018-05-15T19:42:21.170Z,4.40
2018-05-15T19:44:47.613Z,4.07
2018-05-15T19:47:14.925Z,4.37
2018-05-15T19:49:42.764Z,4.30
2018-05-15T19:52:09.294Z,4.40
2018-05-15T19:54:35.783Z,4.73
2018-05-15T19:57:04.622Z,4.50
2018-05-15T19:59:31.223Z,4.57
2018-05-15T20:01:57.919Z,5.30
2018-05-15T20:04:24.277Z,5.10
2018-05-15T20:06:58.352Z,4.60
2018-05-15T20:46:09.124Z,5.87
2018-05-15T20:48:35.437Z,6.17
2018-05-15T20:51:01.662Z,6.83
2018-05-15T20:53:27.969Z,6.47
2018-05-15T20:55:54.204Z,6.47
2018-05-15T20:58:20.488Z,5.10
2018-05-15T21:00:46.705Z,6.30
2018-05-15T21:03:12.946Z,5.87
2018-05-15T21:05:39.245Z,5.93
2018-05-15T21:08:05.659Z,5.67
2018-05-15T21:10:32.001Z,6.00
2018-05-15T21:12:58.145Z,6.63
2018-05-15T21:15:25.171Z,6.30
2018-05-15T21:17:51.403Z,6.63
2018-05-15T21:20:17.595Z,6.50
2018-05-15T21:22:43.864Z,6.40
2018-05-15T21:25:10.165Z,6.17
2018-05-15T21:30:07.327Z,5.60
2018-05-15T21:32:33.562Z,6.63
2018-05-15T21:34:59.808Z,5.77
2018-05-15T21:37:25.996Z,6.27
2018-05-15T21:39:52.263Z,6.37
2018-05-15T21:42:18.597Z,6.70
2018-05-15T21:44:45.545Z,6.77
2018-05-15T21:47:12.592Z,7.30
2018-05-15T21:49:39.507Z,6.40
2018-05-15T21:52:05.713Z,7.57
2018-05-15T21:54:31.928Z,6.30
2018-05-15T21:56:58.263Z,6.63
2018-05-15T21:59:24.537Z,6.90
2018-05-15T22:01:59.665Z,6.77
2018-05-15T22:04:25.876Z,6.90
2018-05-15T22:06:52.177Z,6.60
2018-05-15T22:09:18.522Z,6.30
2018-05-15T22:11:56.987Z,7.07
2018-05-15T22:14:35.339Z,7.00
2018-05-15T22:17:14.463Z,6.87
2018-05-15T22:19:52.910Z,6.73
2018-05-15T22:22:20.006Z,7.80
2018-05-15T22:24:46.471Z,7.10
2018-05-15T22:27:13.383Z,7.50
2018-05-15T22:29:39.566Z,5.87
2018-05-15T22:32:05.854Z,7.00
2018-05-15T22:34:32.035Z,6.50
2018-05-15T22:36:58.232Z,6.93
2018-05-15T22:39:24.399Z,7.37
2018-05-15T22:41:50.669Z,7.97
2018-05-15T22:44:16.820Z,7.70
2018-05-15T22:46:42.949Z,8.57
2018-05-15T22:49:09.159Z,8.23
2018-05-15T22:51:35.339Z,7.47
2018-05-15T22:54:01.538Z,7.13
2018-05-15T22:56:27.730Z,7.70
2018-05-15T22:58:54.836Z,7.80
2018-05-15T23:01:21.016Z,7.90
2018-05-15T23:03:47.229Z,7.70
2018-05-15T23:06:13.421Z,8.20
2018-05-15T23:08:39.605Z,8.97
2018-05-15T23:11:05.796Z,8.17
2018-05-15T23:13:31.933Z,8.50
2018-05-15T23:15:58.153Z,8.53
2018-05-15T23:18:24.291Z,8.73
2018-05-15T23:20:50.436Z,7.50
2018-05-15T23:23:16.640Z,7.63
2018-05-15T23:25:42.764Z,8.90
2018-05-15T23:28:08.944Z,8.90
2018-05-15T23:30:35.093Z,7.90
2018-05-15T23:33:01.221Z,8.23
2018-05-15T23:35:27.355Z,7.67
2018-05-15T23:37:53.491Z,8.70
2018-05-15T23:40:19.622Z,8.17
2018-05-15T23:42:45.743Z,8.77
2018-05-15T23:45:11.903Z,8.30
2018-05-15T23:47:38.138Z,7.80
2018-05-15T23:50:04.397Z,8.77
2018-05-15T23:52:30.540Z,7.83
2018-05-15T23:54:56.689Z,8.10
2018-05-15T23:57:22.887Z,9.00
2018-05-15T23:59:49.796Z,9.10
